createdAt,value
2023-03-07T00:02:26.723Z,7.06
2023-03-07T00:04:53.351Z,7.02
2023-03-07T00:07:20.064Z,7.03
2023-03-07T00:09:46.724Z,6.98
2023-03-07T00:12:13.441Z,6.99
2023-03-07T00:14:40.527Z,7.01
2023-03-07T00:17:07.262Z,7.07
2023-03-07T00:19:33.888Z,7.13
2023-03-07T00:22:00.593Z,7.14
2023-03-07T00:24:27.227Z,7.14
2023-03-07T00:26:53.912Z,7.07
2023-03-07T00:29:20.532Z,7.07
2023-03-07T00:31:49.516Z,7.08
2023-03-07T00:34:16.221Z,7.12
2023-03-07T00:36:42.993Z,7.08
2023-03-07T00:39:09.723Z,7.07
2023-03-07T00:41:36.488Z,7.02
2023-03-07T00:44:03.833Z,7.03
2023-03-07T00:46:30.598Z,7.03
2023-03-07T00:48:57.274Z,7.01
2023-03-07T00:51:24.248Z,7.03
2023-03-07T00:53:51.912Z,7.00
2023-03-07T00:56:23.036Z,7.01
2023-03-07T00:58:50.446Z,6.97
2023-03-07T01:01:21.393Z,6.89
2023-03-07T01:03:53.571Z,6.94
2023-03-07T01:06:23.118Z,7.00
2023-03-07T01:08:49.900Z,6.89
2023-03-07T01:11:16.785Z,6.81
2023-03-07T01:13:43.614Z,6.72
2023-03-07T01:16:18.804Z,6.68
2023-03-07T01:18:48.835Z,6.81
2023-03-07T01:21:19.676Z,6.80
2023-03-07T01:23:46.666Z,6.70
2023-03-07T01:26:18.946Z,6.80
2023-03-07T01:28:46.503Z,6.72
2023-03-07T01:31:13.976Z,6.67
2023-03-07T01:33:41.748Z,6.79
2023-03-07T01:36:18.692Z,6.71
2023-03-07T01:38:48.557Z,6.70
2023-03-07T01:41:17.014Z,6.72
2023-03-07T01:43:45.256Z,6.76
2023-03-07T01:46:27.993Z,6.72
2023-03-07T01:49:00.112Z,6.73
2023-03-07T01:51:29.802Z,6.72
2023-03-07T01:54:02.033Z,6.74
2023-03-07T01:56:29.564Z,6.76
2023-03-07T01:58:56.583Z,6.80
2023-03-07T02:01:25.743Z,6.81
2023-03-07T02:04:02.071Z,6.76
2023-03-07T02:06:33.366Z,6.74
2023-03-07T02:09:00.577Z,6.64
2023-03-07T02:11:27.312Z,6.64
2023-03-07T02:13:54.123Z,6.60
2023-03-07T02:16:20.902Z,6.62
2023-03-07T02:18:50.426Z,6.67
2023-03-07T02:21:43.600Z,6.63
2023-03-07T02:24:29.053Z,6.59
2023-03-07T02:26:58.038Z,6.56
2023-03-07T02:29:25.151Z,6.64
2023-03-07T02:31:51.853Z,6.59
2023-03-07T02:34:24.130Z,6.54
2023-03-07T02:37:02.175Z,6.48
2023-03-07T02:39:30.384Z,6.42
2023-03-07T02:42:06.930Z,6.41
2023-03-07T02:44:47.639Z,6.35
2023-03-07T02:47:16.369Z,6.37
2023-03-07T02:49:43.109Z,6.45
2023-03-07T02:52:10.574Z,6.40
2023-03-07T02:54:37.235Z,6.28
2023-03-07T02:57:04.547Z,6.19
2023-03-07T02:59:31.189Z,6.12
2023-03-07T03:01:58.200Z,6.17
2023-03-07T03:04:24.915Z,6.22
2023-03-07T03:06:51.730Z,6.25
2023-03-07T03:09:18.402Z,6.27
2023-03-07T03:11:45.569Z,6.30
2023-03-07T03:14:12.906Z,6.31
2023-03-07T03:16:40.328Z,6.25
2023-03-07T03:19:07.598Z,6.18
2023-03-07T03:21:34.532Z,6.22
2023-03-07T03:24:06.913Z,6.28
2023-03-07T03:26:35.519Z,6.24
2023-03-07T03:29:03.617Z,6.22
2023-03-07T03:31:30.572Z,6.18
2023-03-07T03:33:58.377Z,6.19
2023-03-07T03:36:27.392Z,6.13
2023-03-07T03:38:59.943Z,6.07
2023-03-07T03:41:27.618Z,6.05
2023-03-07T03:43:54.851Z,6.09
2023-03-07T03:46:21.720Z,6.15
2023-03-07T03:48:55.439Z,6.16
2023-03-07T03:51:25.317Z,6.09
2023-03-07T03:53:53.715Z,6.01
2023-03-07T03:56:23.183Z,5.99
2023-03-07T03:58:56.805Z,5.97
2023-03-07T04:01:28.272Z,5.91
2023-03-07T04:03:57.499Z,5.86
2023-03-07T04:06:27.281Z,5.86
2023-03-07T04:08:56.141Z,5.87
2023-03-07T04:11:24.301Z,5.96
2023-03-07T04:13:51.717Z,5.95
2023-03-07T04:16:22.362Z,5.96
2023-03-07T04:18:51.000Z,5.90
2023-03-07T04:21:18.123Z,5.87
2023-03-07T04:23:45.431Z,5.89
2023-03-07T04:26:12.516Z,5.93
2023-03-07T04:28:44.840Z,6.11
2023-03-07T04:31:37.876Z,6.13
2023-03-07T04:34:05.800Z,6.11
2023-03-07T04:36:32.933Z,6.10
2023-03-07T04:38:59.839Z,6.10
2023-03-07T04:41:27.086Z,6.19
2023-03-07T04:43:57.991Z,6.22
2023-03-07T04:46:26.409Z,6.21
2023-03-07T04:48:53.909Z,6.20
2023-03-07T04:51:21.186Z,6.25
2023-03-07T04:53:49.256Z,6.27
2023-03-07T04:56:16.394Z,6.21
2023-03-07T04:58:45.020Z,6.20
2023-03-07T05:01:12.481Z,6.23
2023-03-07T05:03:39.247Z,6.23
2023-03-07T05:06:10.379Z,6.23
2023-03-07T05:08:37.575Z,6.24
2023-03-07T05:11:04.394Z,6.25
2023-03-07T05:13:32.266Z,6.34
2023-03-07T05:15:59.783Z,6.38
2023-03-07T05:18:28.337Z,6.43
2023-03-07T05:20:56.644Z,6.35
2023-03-07T05:23:23.960Z,6.27
2023-03-07T05:25:51.692Z,6.30
2023-03-07T05:28:19.495Z,6.31
2023-03-07T05:30:47.180Z,6.28
2023-03-07T05:33:15.014Z,6.25
2023-03-07T05:35:42.424Z,6.20
2023-03-07T05:38:11.431Z,6.24
2023-03-07T05:40:38.440Z,6.28
2023-03-07T05:43:06.089Z,6.29
2023-03-07T05:45:33.328Z,6.21
2023-03-07T05:48:01.192Z,6.25
2023-03-07T05:50:30.641Z,6.23
2023-03-07T05:52:57.811Z,6.24
2023-03-07T05:55:27.393Z,6.18
2023-03-07T05:57:54.076Z,6.09
2023-03-07T06:00:21.451Z,6.06
2023-03-07T06:02:54.310Z,6.06
2023-03-07T06:05:21.098Z,6.10
2023-03-07T06:07:48.927Z,6.13
2023-03-07T06:10:16.479Z,6.14
2023-03-07T06:12:43.370Z,6.13
2023-03-07T06:15:10.368Z,6.20
2023-03-07T06:17:37.863Z,6.20
2023-03-07T06:20:06.034Z,6.10
2023-03-07T06:22:34.584Z,6.11
2023-03-07T06:25:02.443Z,6.20
2023-03-07T06:27:35.452Z,6.25
2023-03-07T06:30:05.604Z,6.27
2023-03-07T06:32:32.726Z,6.30
2023-03-07T06:35:00.492Z,6.32
2023-03-07T06:37:28.537Z,6.36
2023-03-07T06:39:58.395Z,6.30
2023-03-07T06:42:25.084Z,6.33
2023-03-07T06:44:52.164Z,6.31
2023-03-07T06:47:19.637Z,6.39
2023-03-07T06:49:46.344Z,6.44
2023-03-07T06:52:13.296Z,6.49
2023-03-07T06:54:40.038Z,6.50
2023-03-07T06:57:07.314Z,6.61
2023-03-07T06:59:34.058Z,6.65
2023-03-07T07:02:05.636Z,6.65
2023-03-07T07:04:33.761Z,6.71
2023-03-07T07:07:00.658Z,6.80
2023-03-07T07:09:28.999Z,6.77
2023-03-07T07:11:56.041Z,6.74
2023-03-07T07:14:23.429Z,6.78
2023-03-07T07:16:50.517Z,6.76
2023-03-07T07:19:18.043Z,6.77
2023-03-07T07:21:44.598Z,6.86
2023-03-07T07:24:12.954Z,6.87
2023-03-07T07:26:40.009Z,6.85
2023-03-07T07:29:07.891Z,6.86
2023-03-07T07:31:34.996Z,6.81
2023-03-07T07:34:02.329Z,6.79
2023-03-07T07:36:32.050Z,6.88
2023-03-07T07:38:59.196Z,6.95
2023-03-07T07:41:26.838Z,7.08
2023-03-07T07:43:55.412Z,7.16
2023-03-07T07:46:30.954Z,7.23
2023-03-07T07:48:58.168Z,7.20
2023-03-07T07:51:26.916Z,7.11
2023-03-07T07:53:53.793Z,7.10
2023-03-07T07:56:20.653Z,7.10
2023-03-07T07:58:48.038Z,7.07
2023-03-07T08:01:18.016Z,7.10
2023-03-07T08:03:45.363Z,7.06
2023-03-07T08:06:12.176Z,7.14
2023-03-07T08:08:39.424Z,7.18
2023-03-07T08:11:06.194Z,7.08
2023-03-07T08:13:32.875Z,7.14
2023-03-07T08:15:59.679Z,7.17
2023-03-07T08:18:26.483Z,7.16
2023-03-07T08:20:53.058Z,7.20
2023-03-07T08:23:19.722Z,7.21
2023-03-07T08:25:46.397Z,7.07
2023-03-07T08:28:13.061Z,7.04
2023-03-07T08:30:39.924Z,6.93
2023-03-07T08:33:07.388Z,6.96
2023-03-07T08:35:34.065Z,6.80
2023-03-07T08:38:01.471Z,6.96
2023-03-07T08:40:30.175Z,6.94
2023-03-07T08:42:58.870Z,7.00
2023-03-07T08:45:25.654Z,7.04
2023-03-07T08:47:54.189Z,7.14
2023-03-07T08:50:26.069Z,7.10
2023-03-07T08:52:52.865Z,7.00
2023-03-07T08:55:20.420Z,7.01
2023-03-07T08:57:47.833Z,6.91
2023-03-07T09:00:15.215Z,7.01
2023-03-07T09:02:41.928Z,6.99
2023-03-07T09:05:09.325Z,7.15
2023-03-07T09:07:36.102Z,7.16
2023-03-07T09:10:02.773Z,7.11
2023-03-07T09:12:29.569Z,7.12
2023-03-07T09:14:56.168Z,7.15
2023-03-07T09:17:23.052Z,7.17
2023-03-07T09:19:50.700Z,7.13
2023-03-07T09:22:17.665Z,7.19
2023-03-07T09:24:44.406Z,7.17
2023-03-07T09:27:11.590Z,7.27
2023-03-07T09:29:38.326Z,7.23
2023-03-07T09:32:05.359Z,7.23
2023-03-07T09:34:32.161Z,7.28
2023-03-07T09:36:59.066Z,7.41
2023-03-07T09:39:25.850Z,7.46
2023-03-07T09:41:55.818Z,7.56
2023-03-07T09:44:22.480Z,7.61
2023-03-07T09:47:43.490Z,7.70
2023-03-07T09:50:15.114Z,7.74
2023-03-07T09:52:43.134Z,7.76
2023-03-07T09:55:17.429Z,7.91
2023-03-07T09:57:52.530Z,7.95
2023-03-07T10:00:33.758Z,7.95
2023-03-07T10:03:19.261Z,7.96
2023-03-07T10:05:50.301Z,7.90
2023-03-07T10:08:24.987Z,7.93
2023-03-07T10:11:28.778Z,7.92
2023-03-07T10:13:58.433Z,7.89
2023-03-07T10:16:43.248Z,7.91
2023-03-07T10:19:36.136Z,7.94
2023-03-07T10:22:32.198Z,7.99
2023-03-07T10:25:01.756Z,7.98
2023-03-07T10:27:30.859Z,7.98
2023-03-07T10:30:00.652Z,8.00
2023-03-07T10:32:47.331Z,8.03
2023-03-07T10:35:24.291Z,8.05
2023-03-07T10:37:59.014Z,8.10
2023-03-07T10:40:29.912Z,8.15
2023-03-07T10:42:57.243Z,8.26
2023-03-07T10:45:24.275Z,8.28
2023-03-07T10:47:51.185Z,8.32
2023-03-07T10:50:56.918Z,8.34
2023-03-07T10:53:30.879Z,8.39
2023-03-07T10:56:26.991Z,8.37
2023-03-07T10:59:09.647Z,8.37
2023-03-07T11:01:54.473Z,8.35
2023-03-07T11:04:23.981Z,8.38
2023-03-07T11:06:50.562Z,8.39
2023-03-07T11:09:18.932Z,8.40
2023-03-07T11:11:54.044Z,8.41
2023-03-07T11:14:22.225Z,8.49
2023-03-07T11:17:01.059Z,8.54
2023-03-07T11:19:45.417Z,8.60
2023-03-07T11:22:28.501Z,8.77
2023-03-07T11:25:05.378Z,8.85
2023-03-07T11:27:38.793Z,8.90
2023-03-07T11:30:19.939Z,9.01
2023-03-07T11:33:28.218Z,9.00
2023-03-07T11:36:00.197Z,8.94
2023-03-07T11:38:59.945Z,8.93
2023-03-07T11:42:08.124Z,8.91
2023-03-07T11:44:50.695Z,8.82
2023-03-07T11:47:32.048Z,9.01
2023-03-07T11:50:04.967Z,9.06
2023-03-07T11:52:44.098Z,9.09
2023-03-07T11:55:36.307Z,9.08
2023-03-07T11:58:08.932Z,9.09
2023-03-07T12:01:13.575Z,9.12
2023-03-07T12:04:17.841Z,9.11
2023-03-07T12:07:00.125Z,9.09
2023-03-07T12:09:41.615Z,9.08
2023-03-07T12:12:18.769Z,9.09
2023-03-07T12:15:00.342Z,9.13
2023-03-07T12:18:04.853Z,9.13
2023-03-07T12:20:43.162Z,9.13
2023-03-07T12:23:37.987Z,9.17
2023-03-07T12:26:42.264Z,9.18
2023-03-07T12:29:30.016Z,9.23
2023-03-07T12:32:00.864Z,9.25
2023-03-07T12:34:39.452Z,9.29
2023-03-07T12:37:33.091Z,9.29
2023-03-07T12:40:26.284Z,9.34
2023-03-07T12:42:55.879Z,9.37
2023-03-07T12:45:29.158Z,9.39
2023-03-07T12:48:05.943Z,9.47
2023-03-07T12:50:44.694Z,9.52
2023-03-07T12:53:22.493Z,9.53
2023-03-07T12:55:58.271Z,9.47
2023-03-07T12:58:40.320Z,9.51
2023-03-07T13:01:26.733Z,9.47
2023-03-07T13:03:54.143Z,9.50
2023-03-07T13:06:22.522Z,9.45
2023-03-07T13:08:54.593Z,9.41
2023-03-07T13:11:24.319Z,9.38
2023-03-07T13:13:55.563Z,9.45
2023-03-07T13:16:35.851Z,9.39
2023-03-07T13:19:36.722Z,9.36
2023-03-07T13:22:23.265Z,9.34
2023-03-07T13:24:51.717Z,9.35
2023-03-07T13:27:21.042Z,9.30
2023-03-07T13:30:12.228Z,9.35
2023-03-07T13:32:51.155Z,9.32
2023-03-07T13:35:35.925Z,9.37
2023-03-07T13:38:42.374Z,9.38
2023-03-07T13:41:11.647Z,9.44
2023-03-07T13:43:44.421Z,9.45
2023-03-07T13:46:38.246Z,9.42
2023-03-07T13:49:05.089Z,9.44
2023-03-07T13:51:31.743Z,9.42
2023-03-07T13:54:10.393Z,9.48
2023-03-07T13:56:42.291Z,9.44
2023-03-07T13:59:27.831Z,9.48
2023-03-07T14:01:59.271Z,9.45
2023-03-07T14:04:51.860Z,9.51
2023-03-07T14:07:34.908Z,9.54
2023-03-07T14:10:30.712Z,9.51
2023-03-07T14:13:19.608Z,9.48
2023-03-07T14:16:21.513Z,9.46
2023-03-07T14:19:11.219Z,9.45
2023-03-07T14:22:00.954Z,9.40
2023-03-07T14:24:54.488Z,9.39
2023-03-07T14:27:21.378Z,9.38
2023-03-07T14:29:50.398Z,9.39
2023-03-07T14:32:31.070Z,9.38
2023-03-07T14:34:59.030Z,9.34
2023-03-07T14:37:28.113Z,9.31
2023-03-07T14:40:00.777Z,9.28
2023-03-07T14:42:50.108Z,9.25
2023-03-07T14:45:28.870Z,9.26
2023-03-07T14:48:04.465Z,9.23
2023-03-07T14:50:31.911Z,9.26
2023-03-07T14:53:12.139Z,9.20
2023-03-07T14:55:41.925Z,9.17
2023-03-07T14:58:16.942Z,9.09
2023-03-07T15:00:43.798Z,9.18
2023-03-07T15:03:14.890Z,9.18
2023-03-07T15:05:55.156Z,9.20
2023-03-07T15:08:30.437Z,9.17
2023-03-07T15:11:04.810Z,9.21
2023-03-07T15:13:54.165Z,9.23
2023-03-07T15:16:26.516Z,9.27
2023-03-07T15:19:01.891Z,9.24
2023-03-07T15:21:40.315Z,9.22
2023-03-07T15:24:17.432Z,9.18
2023-03-07T15:26:55.559Z,9.16
2023-03-07T15:29:25.590Z,9.10
2023-03-07T15:32:29.058Z,9.17
2023-03-07T15:35:07.699Z,9.16
2023-03-07T15:37:37.414Z,9.19
2023-03-07T15:40:07.952Z,9.22
2023-03-07T15:42:58.455Z,9.32
2023-03-07T15:45:40.963Z,9.30
2023-03-07T15:48:48.803Z,9.28
2023-03-07T15:51:20.912Z,9.19
2023-03-07T15:54:04.502Z,9.21
2023-03-07T15:56:40.527Z,9.21
2023-03-07T15:59:28.040Z,9.16
2023-03-07T16:01:55.199Z,9.19
2023-03-07T16:04:35.171Z,9.18
2023-03-07T16:07:02.133Z,9.19
2023-03-07T16:09:28.786Z,9.20
2023-03-07T16:11:56.049Z,9.18
2023-03-07T16:14:29.423Z,9.25
2023-03-07T16:16:59.621Z,9.21
2023-03-07T16:19:26.659Z,9.13
2023-03-07T16:21:53.451Z,9.15
2023-03-07T16:24:20.315Z,9.16
2023-03-07T16:26:47.982Z,9.16
2023-03-07T16:29:17.288Z,9.16
2023-03-07T16:31:44.143Z,9.19
2023-03-07T16:34:15.601Z,9.13
2023-03-07T16:36:42.967Z,9.16
2023-03-07T16:39:10.872Z,9.16
2023-03-07T16:41:49.319Z,9.11
2023-03-07T16:44:18.761Z,9.09
2023-03-07T16:46:50.534Z,9.06
2023-03-07T16:49:19.999Z,9.07
2023-03-07T16:51:51.067Z,9.06
2023-03-07T16:54:26.565Z,9.03
2023-03-07T16:56:55.307Z,9.06
2023-03-07T16:59:24.728Z,9.09
2023-03-07T17:01:54.416Z,9.15
2023-03-07T17:04:21.056Z,9.08
2023-03-07T17:06:57.692Z,9.09
2023-03-07T17:09:27.930Z,9.03
2023-03-07T17:11:54.785Z,9.02
2023-03-07T17:14:21.470Z,9.01
2023-03-07T17:16:50.353Z,8.93
2023-03-07T17:19:25.006Z,8.95
2023-03-07T17:21:52.011Z,9.03
2023-03-07T17:24:18.658Z,9.02
2023-03-07T17:26:46.682Z,9.01
2023-03-07T17:29:38.192Z,8.99
2023-03-07T17:32:05.547Z,8.97
2023-03-07T17:34:33.982Z,8.97
2023-03-07T17:37:01.090Z,8.96
2023-03-07T17:39:29.712Z,9.03
2023-03-07T17:41:56.873Z,8.98
2023-03-07T17:44:23.600Z,8.99
2023-03-07T17:46:51.874Z,8.97
2023-03-07T17:49:19.070Z,8.98
2023-03-07T17:51:45.758Z,8.96
2023-03-07T17:54:12.383Z,8.91
2023-03-07T17:56:39.293Z,8.81
2023-03-07T17:59:05.945Z,8.89
2023-03-07T18:01:34.591Z,8.86
2023-03-07T18:04:02.694Z,8.87
2023-03-07T18:06:29.663Z,8.86
2023-03-07T18:08:57.496Z,8.85
2023-03-07T18:11:24.210Z,8.83
2023-03-07T18:13:50.791Z,8.76
2023-03-07T18:16:17.563Z,8.84
2023-03-07T18:18:58.364Z,8.81
2023-03-07T18:21:26.569Z,8.78
2023-03-07T18:23:53.300Z,8.78
2023-03-07T18:26:21.204Z,8.76
2023-03-07T18:28:50.354Z,8.78
2023-03-07T18:31:30.294Z,8.79
2023-03-07T18:33:57.400Z,8.70
2023-03-07T18:36:25.108Z,8.73
2023-03-07T18:38:52.124Z,8.75
2023-03-07T18:41:21.816Z,8.69
2023-03-07T18:43:49.200Z,8.70
2023-03-07T18:46:19.099Z,8.70
2023-03-07T18:48:46.805Z,8.67
2023-03-07T18:51:16.997Z,8.67
2023-03-07T18:53:43.875Z,8.68
2023-03-07T18:56:15.379Z,8.67
2023-03-07T18:58:43.381Z,8.66
2023-03-07T19:01:17.696Z,8.67
2023-03-07T19:03:46.173Z,8.60
2023-03-07T19:06:14.481Z,8.62
2023-03-07T19:08:41.397Z,8.56
2023-03-07T19:11:11.152Z,8.55
2023-03-07T19:13:38.717Z,8.56
2023-03-07T19:16:11.791Z,8.60
2023-03-07T19:18:38.987Z,8.58
2023-03-07T19:21:11.957Z,8.46
2023-03-07T19:23:39.561Z,8.50
2023-03-07T19:26:08.926Z,8.52
2023-03-07T19:28:36.226Z,8.56
2023-03-07T19:31:29.507Z,8.47
2023-03-07T19:33:57.416Z,8.54
2023-03-07T19:36:27.317Z,8.50
2023-03-07T19:38:56.464Z,8.48
2023-03-07T19:41:25.198Z,8.47
2023-03-07T19:43:52.573Z,8.46
2023-03-07T19:46:20.293Z,8.48
2023-03-07T19:48:47.726Z,8.45
2023-03-07T19:51:22.675Z,8.52
2023-03-07T19:53:49.743Z,8.58
2023-03-07T19:56:30.474Z,8.59
2023-03-07T19:58:59.007Z,8.51
2023-03-07T20:01:27.166Z,8.53
2023-03-07T20:03:55.227Z,8.48
2023-03-07T20:06:25.358Z,8.40
2023-03-07T20:08:54.001Z,8.36
2023-03-07T20:11:27.400Z,8.33
2023-03-07T20:13:55.272Z,8.31
2023-03-07T20:16:22.391Z,8.27
2023-03-07T20:18:53.535Z,8.30
2023-03-07T20:21:22.326Z,8.28
2023-03-07T20:23:49.378Z,8.32
2023-03-07T20:26:19.784Z,8.32
2023-03-07T20:28:46.615Z,8.26
2023-03-07T20:31:13.463Z,8.26
2023-03-07T20:33:45.596Z,8.21
2023-03-07T20:36:26.511Z,8.18
2023-03-07T20:38:55.773Z,8.19
2023-03-07T20:41:25.610Z,8.14
2023-03-07T20:43:53.215Z,8.12
2023-03-07T20:46:22.099Z,8.10
2023-03-07T20:48:49.335Z,8.15
2023-03-07T20:51:21.305Z,8.12
2023-03-07T20:53:50.280Z,8.08
2023-03-07T20:56:18.606Z,8.09
2023-03-07T20:58:46.080Z,8.09
2023-03-07T21:01:15.571Z,8.04
2023-03-07T21:03:42.646Z,8.05
2023-03-07T21:06:09.447Z,7.97
2023-03-07T21:08:37.972Z,7.98
2023-03-07T21:11:10.841Z,7.92
2023-03-07T21:13:40.293Z,7.91
2023-03-07T21:16:10.428Z,7.90
2023-03-07T21:18:37.273Z,7.82
2023-03-07T21:21:06.729Z,7.80
2023-03-07T21:23:33.488Z,7.79
2023-03-07T21:26:21.280Z,7.81
2023-03-07T21:28:50.515Z,7.78
2023-03-07T21:31:25.398Z,7.69
2023-03-07T21:33:59.427Z,7.59
2023-03-07T21:36:27.801Z,7.55
2023-03-07T21:38:55.295Z,7.46
2023-03-07T21:41:24.826Z,7.44
2023-03-07T21:43:52.843Z,7.43
2023-03-07T21:46:19.849Z,7.40
2023-03-07T21:48:47.072Z,7.38
2023-03-07T21:51:13.839Z,7.35
2023-03-07T21:53:41.052Z,7.32
2023-03-07T21:56:10.839Z,7.30
2023-03-07T21:58:39.040Z,7.27
2023-03-07T22:01:14.538Z,7.26
2023-03-07T22:03:41.347Z,7.21
2023-03-07T22:06:10.774Z,7.16
2023-03-07T22:08:38.181Z,7.19
2023-03-07T22:11:06.894Z,7.11
2023-03-07T22:13:35.711Z,7.07
2023-03-07T22:16:08.130Z,6.97
2023-03-07T22:18:35.115Z,6.90
2023-03-07T22:21:28.112Z,6.85
2023-03-07T22:23:57.901Z,6.79
2023-03-07T22:26:25.378Z,6.75
2023-03-07T22:28:52.925Z,6.77
2023-03-07T22:31:19.690Z,6.74
2023-03-07T22:33:46.327Z,6.79
2023-03-07T22:36:14.154Z,6.77
2023-03-07T22:38:42.711Z,6.79
2023-03-07T22:41:14.031Z,6.83
2023-03-07T22:43:41.268Z,6.79
2023-03-07T22:46:08.829Z,6.69
2023-03-07T22:48:35.849Z,6.64
2023-03-07T22:51:02.921Z,6.58
2023-03-07T22:53:30.978Z,6.51
2023-03-07T22:56:00.942Z,6.51
2023-03-07T22:58:28.958Z,6.48
2023-03-07T23:00:56.107Z,6.42
2023-03-07T23:03:23.470Z,6.41
2023-03-07T23:05:50.270Z,6.39
2023-03-07T23:08:17.099Z,6.39
2023-03-07T23:10:43.794Z,6.32
2023-03-07T23:13:10.571Z,6.29
2023-03-07T23:15:41.128Z,6.28
2023-03-07T23:18:08.730Z,6.28
2023-03-07T23:20:37.474Z,6.27
2023-03-07T23:23:04.444Z,6.33
2023-03-07T23:25:31.082Z,6.23
2023-03-07T23:27:57.756Z,6.19
2023-03-07T23:30:24.664Z,6.14
2023-03-07T23:32:51.542Z,6.10
2023-03-07T23:35:18.143Z,6.09
2023-03-07T23:37:44.825Z,6.07
2023-03-07T23:40:12.276Z,5.99
2023-03-07T23:42:38.997Z,6.02
2023-03-07T23:45:06.018Z,5.95
2023-03-07T23:47:34.267Z,5.94
2023-03-07T23:50:00.928Z,5.90
2023-03-07T23:52:27.592Z,5.99
2023-03-07T23:54:54.256Z,6.01
2023-03-07T23:57:20.862Z,6.03
2023-03-07T23:59:48.234Z,5.98
